Time;durP1;ratioP1;P1;durP2;ratioP2;P2;SDS_P1;SDS_P2;PMS_P1;PMS_P2;Temp;Humidity;BMP_temperature;BMP_pressure;BME280_temperature;BME280_humidity;BME280_pressure;Samples;Min_cycle;Max_cycle;Signal;HPM_P1;HPM_P2
2022/06/01 00:11:10;;;;;;;3.53;1.67;;;14.70;74.60;;;13.49;78.59;95831.72;4695183;30;20383;-66
2022/06/01 00:25:13;;;;;;;3.15;1.05;;;14.40;75.60;;;13.17;80.24;95832.69;4736458;30;20051;-65
2022/06/01 00:29:14;;;;;;;;;;;;;;;;;;;;;
2022/06/01 00:36:12;;;;;;;1.88;1.23;;;14.10;76.30;;;12.99;80.17;95841.31;4849020;29;20049;-66
2022/06/01 00:46:37;;;;;;;;;;;;;;;;;;;;;
2022/06/01 00:57:25;;;;;;;2.03;0.93;;;14.00;76.60;;;12.87;82.51;95859.63;4781285;29;20077;-66
2022/06/01 01:15:31;;;;;;;1.90;1.00;;;14.00;76.80;;;12.79;82.97;95857.22;4755599;29;20106;-63
2022/06/01 01:34:14;;;;;;;2.53;1.02;;;13.80;77.40;;;12.58;83.57;95865.41;4324570;30;10088587;-68
2022/06/01 01:37:40;;;;;;;3.95;1.23;;;13.70;77.50;;;12.55;83.70;95855.28;4624376;30;323344;-64
2022/06/01 01:41:41;;;;;;;1.35;1.20;;;13.70;77.50;;;12.52;84.27;95853.06;4609736;30;20052;-67
2022/06/01 01:45:45;;;;;;;1.35;1.10;;;13.70;77.70;;;12.50;84.29;95849.81;4637307;30;163580;-67
2022/06/01 02:03:54;;;;;;;1.48;1.20;;;13.60;77.70;;;12.38;84.71;95864.63;4976614;28;20045;-65
2022/06/01 02:17:44;;;;;;;2.13;1.40;;;13.50;78.10;;;12.26;85.22;95862.63;4912343;29;20071;-63
2022/06/01 02:39:45;;;;;;;5.97;4.93;;;13.30;78.50;;;12.10;86.64;95872.78;4882602;29;20088;-64
2022/06/01 02:57:08;;;;;;;4.60;1.27;;;13.20;79.00;;;11.99;86.13;95882.09;4930997;28;20038;-64
2022/06/01 03:08:32;;;;;;;1.90;1.27;;;13.20;79.10;;;11.97;86.94;95892.03;4866493;28;20178;-64
2022/06/01 03:12:40;;;;;;;2.38;1.30;;;13.20;79.10;;;11.97;86.83;95899.94;4982514;28;20509;-66
2022/06/01 03:15:17;;;;;;;;;;;;;;;;;;;;;
2022/06/01 03:18:50;;;;;;;2.60;1.60;;;13.20;79.20;;;11.95;87.08;95892.25;4963631;28;20045;-65
2022/06/01 03:21:41;;;;;;;3.35;1.50;;;13.10;79.10;;;11.93;85.96;95883.72;5004496;28;20092;-65
2022/06/01 03:24:45;;;;;;;2.50;1.50;;;13.20;79.10;;;11.96;87.01;95887.78;4984559;28;20110;-70
2022/06/01 03:31:11;;;;;;;2.50;1.55;;;13.30;79.00;;;11.94;85.44;95895.09;4897121;29;20048;-75
2022/06/01 03:33:36;;;;;;;3.35;1.52;;;13.20;78.90;;;11.95;85.88;95892.25;4932869;29;20050;-73
2022/06/01 03:36:04;;;;;;;2.15;1.50;;;13.30;78.90;;;11.96;85.82;95888.59;4952207;28;20521;-65
2022/06/01 03:38:30;;;;;;;2.92;1.63;;;13.20;78.90;;;11.96;86.11;95898.31;5019880;28;20037;-64
2022/06/01 03:40:56;;;;;;;2.42;1.50;;;13.30;78.80;;;11.96;86.33;95893.88;5029452;28;20041;-64
2022/06/01 03:43:22;;;;;;;2.85;1.65;;;13.30;78.80;;;11.97;86.32;95892.03;4970042;28;20042;-65
2022/06/01 03:45:57;;;;;;;2.63;1.60;;;13.40;78.70;;;11.99;86.46;95890.00;5033516;28;20033;-67
2022/06/01 03:48:29;;;;;;;1.85;1.52;;;13.30;78.80;;;12.01;86.52;95893.28;5021281;28;20051;-65
2022/06/01 03:50:56;;;;;;;2.30;1.65;;;13.40;78.70;;;12.02;85.77;95892.25;5002491;28;20045;-64
2022/06/01 03:53:23;;;;;;;2.75;1.70;;;13.40;78.50;;;12.03;86.07;95893.88;5018152;28;20037;-65
2022/06/01 03:55:49;;;;;;;3.47;2.00;;;13.40;78.60;;;12.05;86.56;95902.41;5031457;28;20065;-65
2022/06/01 03:58:17;;;;;;;2.15;1.55;;;13.40;78.60;;;12.05;86.33;95896.31;5036915;28;20118;-64
2022/06/01 04:00:43;;;;;;;2.20;1.60;;;13.40;78.70;;;12.06;86.81;95901.38;5019212;28;20035;-65
2022/06/01 04:03:09;;;;;;;2.70;1.70;;;13.50;78.60;;;12.08;87.03;95898.53;5023399;28;20037;-65
2022/06/01 04:05:34;;;;;;;2.05;1.80;;;13.50;78.60;;;12.09;86.71;95900.97;5016286;28;20444;-64
2022/06/01 04:08:02;;;;;;;2.70;1.73;;;13.50;78.60;;;12.10;86.33;95905.22;5025276;28;20029;-65
2022/06/01 04:10:27;;;;;;;5.25;1.48;;;13.60;78.60;;;12.12;86.83;95903.19;5030630;28;20041;-65
2022/06/01 04:12:53;;;;;;;4.35;1.40;;;13.60;78.40;;;12.13;86.09;95904.81;5021446;28;20042;-65
2022/06/01 04:15:19;;;;;;;2.60;1.60;;;13.50;78.30;;;12.15;86.40;95913.34;5021569;28;20496;-64
2022/06/01 04:17:45;;;;;;;2.78;2.00;;;13.60;78.40;;;12.16;86.72;95917.59;5034908;28;20021;-65
2022/06/01 04:20:11;;;;;;;3.65;2.47;;;13.60;78.40;;;12.16;86.55;95920.22;5002849;28;20416;-65
2022/06/01 04:22:42;;;;;;;5.10;3.50;;;13.60;78.30;;;12.19;87.11;95919.81;5046163;28;20492;-65
2022/06/01 04:25:09;;;;;;;4.03;3.13;;;13.60;78.20;;;12.20;86.54;95915.38;5000334;28;20115;-64
2022/06/01 04:27:35;;;;;;;4.95;3.63;;;13.60;78.20;;;12.22;86.71;95924.72;5024422;28;20037;-64
2022/06/01 04:30:02;;;;;;;4.25;2.55;;;13.70;78.20;;;12.24;86.70;95927.97;5031745;28;20027;-64
2022/06/01 04:32:28;;;;;;;5.15;2.38;;;13.70;78.10;;;12.27;86.46;95922.28;5012416;28;20152;-65
2022/06/01 04:34:54;;;;;;;3.75;2.17;;;13.80;78.10;;;12.32;86.53;95932.22;5022649;28;20037;-65
2022/06/01 04:37:20;;;;;;;2.40;2.15;;;13.80;78.10;;;12.37;87.28;95928.94;5032370;28;20033;-66
2022/06/01 04:39:46;;;;;;;3.00;2.05;;;13.90;78.10;;;12.41;87.80;95924.88;5022545;28;20033;-67
2022/06/01 04:42:11;;;;;;;2.50;2.05;;;14.00;78.30;;;12.46;87.48;95925.91;5031882;28;20037;-75
2022/06/01 04:44:37;;;;;;;3.00;2.00;;;14.10;78.30;;;12.51;87.99;95933.22;5036787;28;20054;-76
2022/06/01 04:47:04;;;;;;;2.40;1.90;;;14.10;78.10;;;12.56;87.39;95930.75;5035094;28;20044;-76
2022/06/01 04:49:30;;;;;;;4.13;2.00;;;14.10;78.10;;;12.61;87.46;95933.59;5031152;28;20038;-72
2022/06/01 04:51:56;;;;;;;2.28;1.70;;;14.10;77.90;;;12.65;87.36;95934.00;5027404;28;20029;-74
2022/06/01 04:54:21;;;;;;;2.20;1.63;;;14.20;78.20;;;12.68;87.45;95923.84;5017099;28;20049;-70
2022/06/01 04:56:47;;;;;;;2.38;1.98;;;14.20;78.30;;;12.71;87.15;95928.72;5023072;28;20041;-64
2022/06/01 04:59:16;;;;;;;4.10;1.92;;;14.20;78.30;;;12.77;88.15;95933.16;5012250;28;20057;-64
2022/06/01 05:01:43;;;;;;;2.85;1.90;;;14.40;78.10;;;12.84;87.46;95933.13;5015876;28;20411;-64
2022/06/01 05:04:09;;;;;;;4.43;1.80;;;14.50;77.70;;;12.89;86.99;95934.13;5039389;28;20032;-65
2022/06/01 05:06:35;;;;;;;1.77;1.40;;;14.60;77.40;;;12.97;86.75;95932.31;5016519;28;20590;-65
2022/06/01 05:09:01;;;;;;;2.13;1.58;;;14.60;77.10;;;13.03;87.37;95932.28;5028322;28;20380;-66
2022/06/01 05:11:26;;;;;;;2.88;1.75;;;14.70;76.80;;;13.13;87.28;95932.66;5034127;28;20061;-66
2022/06/01 05:13:52;;;;;;;2.25;1.55;;;14.80;76.50;;;13.21;86.32;95936.94;5004959;28;20064;-66
2022/06/01 05:16:18;;;;;;;3.15;1.83;;;14.90;76.40;;;13.28;86.20;95935.06;5013759;28;21067;-65
2022/06/01 05:18:44;;;;;;;3.42;2.05;;;15.00;76.00;;;13.36;86.57;95934.84;5014517;28;20841;-66
2022/06/01 05:21:09;;;;;;;2.80;1.73;;;15.10;75.90;;;13.44;85.77;95941.72;5017436;28;20116;-66
2022/06/01 05:23:35;;;;;;;3.72;1.80;;;15.10;75.50;;;13.50;85.71;95938.22;5035397;28;20149;-66
2022/06/01 05:26:01;;;;;;;3.40;1.70;;;15.10;75.00;;;13.57;85.78;95940.81;5022250;28;20029;-66
2022/06/01 05:28:29;;;;;;;2.33;1.45;;;15.30;75.50;;;13.68;85.01;95934.88;5001488;28;20056;-67
2022/06/01 05:30:59;;;;;;;2.55;1.85;;;15.50;74.90;;;13.75;83.85;95933.00;5031026;28;20421;-67
2022/06/01 05:33:25;;;;;;;3.83;2.10;;;15.50;74.00;;;13.85;83.66;95935.19;5038183;28;20125;-67
2022/06/01 05:35:51;;;;;;;2.45;1.80;;;15.60;74.30;;;13.96;83.47;95937.94;5016953;28;20095;-66
2022/06/01 05:38:17;;;;;;;2.65;1.70;;;15.90;73.40;;;14.05;83.34;95943.81;5023048;28;20044;-64
2022/06/01 05:40:42;;;;;;;2.60;1.95;;;15.90;73.30;;;14.14;83.76;95942.50;5004483;28;20065;-66
2022/06/01 05:43:11;;;;;;;2.28;1.80;;;15.90;72.40;;;14.25;83.02;95933.06;5019148;28;20065;-62
2022/06/01 05:45:38;;;;;;;3.05;1.50;;;16.10;72.70;;;14.36;82.52;95933.19;5027438;28;20515;-64
2022/06/01 05:48:04;;;;;;;1.90;1.52;;;16.20;72.70;;;14.52;83.41;95931.06;5031414;28;20061;-64
2022/06/01 05:50:30;;;;;;;2.67;1.55;;;16.50;72.50;;;14.68;83.33;95935.75;5033038;28;20037;-64
2022/06/01 05:52:56;;;;;;;2.40;1.60;;;16.60;72.20;;;14.89;82.44;95931.91;5033220;28;20049;-65
2022/06/01 05:55:21;;;;;;;5.85;1.63;;;17.00;72.00;;;15.06;81.51;95932.13;5042552;28;20061;-65
2022/06/01 05:57:47;;;;;;;4.57;1.52;;;17.00;70.10;;;15.18;80.52;95930.38;5034781;28;20084;-64
2022/06/01 06:00:16;;;;;;;4.95;1.60;;;17.10;70.20;;;15.36;81.75;95925.03;5001690;28;20029;-66
2022/06/01 06:02:42;;;;;;;3.47;1.38;;;17.30;70.00;;;15.52;79.96;95929.72;5023879;28;20033;-67
2022/06/01 06:07:56;;;;;;;2.25;1.50;;;17.50;69.10;;;15.69;78.34;95922.00;4984138;28;20041;-65
2022/06/01 06:10:22;;;;;;;1.73;1.30;;;17.50;68.30;;;15.80;77.94;95923.88;5016598;28;20032;-65
2022/06/01 06:12:48;;;;;;;2.80;1.50;;;17.60;68.10;;;15.89;77.58;95924.38;5017377;28;20507;-65
2022/06/01 06:15:14;;;;;;;5.20;1.55;;;17.80;67.50;;;16.04;77.34;95934.56;5016371;28;20045;-65
2022/06/01 06:17:39;;;;;;;2.53;1.70;;;18.10;67.30;;;16.23;78.00;95928.94;5029013;28;20132;-65
2022/06/01 06:20:06;;;;;;;1.92;1.20;;;18.40;67.00;;;16.48;77.19;95935.91;5028616;28;20095;-65
2022/06/01 06:22:32;;;;;;;2.55;1.65;;;18.80;65.40;;;16.74;76.37;95939.97;5012165;28;20072;-65
2022/06/01 06:24:58;;;;;;;2.17;1.60;;;19.10;63.70;;;16.97;74.85;95934.66;5029138;28;20508;-69
2022/06/01 06:27:26;;;;;;;3.60;2.53;;;19.30;63.40;;;17.20;75.69;95935.66;4995857;28;20060;-69
2022/06/01 06:29:53;;;;;;;1.77;1.30;;;19.50;64.00;;;17.35;73.80;95930.66;5026198;28;20040;-69
2022/06/01 06:32:19;;;;;;;3.25;1.17;;;19.60;62.10;;;17.48;73.35;95929.59;4996741;28;20026;-69
2022/06/01 06:34:45;;;;;;;2.10;1.30;;;19.70;61.70;;;17.65;72.70;95930.44;5010545;28;20539;-69
2022/06/01 06:37:11;;;;;;;2.40;1.33;;;20.00;62.10;;;17.79;72.78;95928.34;4997342;28;20061;-69
2022/06/01 06:39:36;;;;;;;2.85;1.52;;;20.10;60.90;;;17.95;72.65;95930.25;5002730;28;20125;-68
2022/06/01 06:42:02;;;;;;;2.42;1.30;;;20.20;60.60;;;18.09;71.76;95936.06;5014525;28;20467;-69
2022/06/01 06:44:28;;;;;;;1.42;1.05;;;20.60;60.00;;;18.25;71.18;95932.63;5012189;28;20639;-69
2022/06/01 06:46:54;;;;;;;4.47;1.35;;;20.70;59.00;;;18.44;70.11;95933.19;5027654;28;20030;-69
2022/06/01 06:49:20;;;;;;;2.13;1.20;;;20.90;58.50;;;18.61;70.17;95931.34;5012503;28;20057;-69
2022/06/01 06:51:46;;;;;;;2.30;1.50;;;21.30;58.10;;;18.79;69.16;95933.78;5039118;28;20026;-69
2022/06/01 06:54:11;;;;;;;2.25;1.20;;;21.30;56.70;;;19.02;69.80;95937.31;5032981;28;20040;-69
2022/06/01 06:56:37;;;;;;;1.95;1.50;;;21.80;56.90;;;19.25;69.17;95931.75;5031007;28;20041;-69
2022/06/01 06:59:04;;;;;;;1.95;1.40;;;22.10;55.20;;;19.47;67.85;95921.06;5016235;28;20029;-69
2022/06/01 07:01:29;;;;;;;2.15;1.30;;;22.50;54.30;;;19.67;67.44;95920.50;5030158;28;20055;-68
2022/06/01 07:03:55;;;;;;;4.90;1.58;;;22.60;53.10;;;19.90;66.83;95914.88;5010340;28;20637;-68
2022/06/01 07:06:24;;;;;;;3.22;1.45;;;22.90;52.20;;;20.10;64.83;95915.06;5018913;28;20111;-68
2022/06/01 07:08:52;;;;;;;1.52;0.90;;;23.10;51.40;;;20.33;63.82;95921.16;5013720;28;20127;-68
2022/06/01 07:11:20;;;;;;;3.00;1.52;;;23.40;50.90;;;20.59;63.96;95924.84;5013465;28;20030;-68
2022/06/01 07:13:47;;;;;;;3.15;1.45;;;23.60;49.80;;;20.77;61.21;95917.25;5010759;28;20037;-68
2022/06/01 07:16:15;;;;;;;2.83;1.40;;;23.60;47.20;;;20.95;60.96;95909.88;5013271;28;20033;-68
2022/06/01 07:18:43;;;;;;;1.30;1.13;;;23.80;48.40;;;21.18;59.92;95908.66;5011661;28;20133;-68
2022/06/01 07:21:09;;;;;;;2.20;1.38;;;24.00;47.60;;;21.40;59.50;95907.44;5046497;28;20033;-69
2022/06/01 07:23:37;;;;;;;2.00;1.30;;;24.20;47.50;;;21.60;58.71;95911.25;5010076;28;20045;-67
2022/06/01 07:26:04;;;;;;;1.80;1.38;;;24.30;46.60;;;21.75;58.13;95913.19;5016366;28;20509;-68
2022/06/01 07:28:30;;;;;;;3.78;1.45;;;24.50;46.60;;;21.90;57.79;95911.34;5045517;28;20128;-68
2022/06/01 07:30:59;;;;;;;2.25;1.15;;;24.80;46.20;;;22.12;57.12;95904.97;4997794;28;20407;-68
2022/06/01 07:33:26;;;;;;;2.13;1.10;;;25.10;45.10;;;22.39;57.37;95913.56;5022864;28;20034;-68
2022/06/01 07:35:52;;;;;;;2.22;1.13;;;25.30;45.60;;;22.65;56.06;95916.25;4980207;28;20030;-68
2022/06/01 07:43:48;;;;;;;3.47;1.27;;;26.10;42.50;;;23.44;53.46;95912.88;5034457;28;20583;-65
2022/06/01 07:46:13;;;;;;;2.47;1.50;;;26.50;42.90;;;23.71;53.54;95912.50;5039225;28;20037;-66
2022/06/01 07:48:39;;;;;;;1.77;1.10;;;26.50;42.10;;;23.94;52.98;95913.72;5023410;28;20033;-66
2022/06/01 07:51:05;;;;;;;2.97;1.15;;;26.80;42.50;;;24.16;51.18;95903.38;5001259;28;20417;-67
2022/06/01 07:53:31;;;;;;;2.63;1.40;;;26.90;40.10;;;24.36;51.65;95897.88;5030936;28;20029;-67
2022/06/01 07:55:57;;;;;;;3.67;1.23;;;27.30;42.10;;;24.64;51.19;95901.66;5034579;28;20037;-63
2022/06/01 07:58:23;;;;;;;3.63;1.60;;;27.50;40.90;;;24.80;49.37;95896.94;5015766;28;20038;-66
2022/06/01 08:00:49;;;;;;;3.58;1.50;;;27.40;39.60;;;24.93;48.56;95900.88;5026377;28;20084;-65
2022/06/01 08:03:16;;;;;;;5.07;1.65;;;27.50;39.20;;;25.06;49.03;95902.91;5014965;28;20063;-66
2022/06/01 08:05:42;;;;;;;2.55;1.17;;;27.70;40.40;;;25.14;48.08;95896.91;5033788;28;20440;-66
2022/06/01 08:08:08;;;;;;;3.60;1.30;;;27.80;39.60;;;25.25;47.39;95902.97;5028127;28;20124;-66
2022/06/01 08:10:34;;;;;;;2.38;1.17;;;27.90;37.80;;;25.32;47.33;95898.84;5021458;28;20040;-66
2022/06/01 08:13:09;;;;;;;3.30;1.42;;;28.30;38.90;;;25.47;46.65;95895.16;5032833;28;20083;-64
2022/06/01 08:15:45;;;;;;;3.28;1.30;;;28.40;36.60;;;25.63;43.42;95888.50;5012341;28;20037;-66
2022/06/01 08:18:17;;;;;;;2.85;1.25;;;28.50;36.60;;;25.82;44.87;95890.44;5033007;28;20036;-67
2022/06/01 08:20:42;;;;;;;2.70;1.10;;;28.80;36.20;;;26.00;44.54;95881.53;5021699;28;20048;-66
2022/06/01 08:23:08;;;;;;;3.67;1.05;;;29.00;35.30;;;26.20;43.76;95886.63;5031612;28;20037;-66
2022/06/01 08:25:34;;;;;;;4.32;1.25;;;29.20;33.80;;;26.46;43.11;95883.56;5012662;28;20098;-66
2022/06/01 08:28:00;;;;;;;2.45;1.05;;;29.60;34.10;;;26.67;43.25;95884.03;5013258;28;20058;-67
2022/06/01 08:30:27;;;;;;;9.07;1.20;;;29.70;34.50;;;26.91;41.14;95883.88;5013877;28;20499;-68
2022/06/01 08:32:53;;;;;;;1.77;1.00;;;29.80;31.10;;;27.00;40.80;95882.13;5033669;28;20065;-67
2022/06/01 08:35:22;;;;;;;1.67;1.00;;;29.90;31.30;;;27.14;39.00;95888.31;5007086;28;20051;-66
2022/06/01 08:37:48;;;;;;;2.50;1.10;;;29.90;31.50;;;27.22;39.47;95882.25;5013959;28;20030;-66
2022/06/01 08:40:17;;;;;;;1.23;0.95;;;30.00;32.10;;;27.45;38.86;95896.66;5021699;28;20069;-66
2022/06/01 08:42:55;;;;;;;2.38;1.10;;;30.30;30.80;;;27.55;36.97;95887.50;5029827;28;20022;-66
2022/06/01 08:45:22;;;;;;;2.00;1.00;;;30.10;31.40;;;27.58;37.78;95886.91;5001549;28;20034;-67
2022/06/01 08:47:48;;;;;;;2.45;1.05;;;29.70;30.10;;;27.65;37.72;95892.75;5006759;28;20136;-72
2022/06/01 08:50:33;;;;;;;3.20;1.02;;;30.10;32.20;;;27.63;34.80;95884.94;5019922;28;20030;-70
2022/06/01 08:53:01;;;;;;;3.10;1.48;;;29.90;30.40;;;27.51;35.71;95891.94;5020717;28;20033;-70
2022/06/01 08:55:39;;;;;;;1.73;0.80;;;29.20;31.30;;;27.51;35.84;95897.34;5012046;28;20042;-67
2022/06/01 08:58:15;;;;;;;3.00;1.25;;;29.80;31.30;;;27.26;34.94;95885.94;5042788;28;20033;-67
2022/06/01 09:00:55;;;;;;;1.73;0.90;;;28.60;31.60;;;27.08;35.64;95897.63;5027652;28;20068;-66
2022/06/01 09:04:07;;;;;;;2.92;1.20;;;28.80;32.20;;;27.03;35.65;95882.31;5011951;28;20042;-68
2022/06/01 09:06:37;;;;;;;2.78;0.93;;;29.20;31.70;;;27.13;36.78;95881.31;5003697;28;20073;-66
2022/06/01 09:09:12;;;;;;;1.92;1.10;;;29.80;32.10;;;27.26;36.79;95885.94;5015912;28;20046;-67
2022/06/01 09:11:38;;;;;;;2.53;1.20;;;30.10;31.70;;;27.43;37.13;95888.03;5014107;28;20037;-67
2022/06/01 09:14:11;;;;;;;2.42;1.20;;;30.40;30.70;;;27.60;34.74;95882.00;5045318;28;20073;-66
2022/06/01 09:16:39;;;;;;;2.70;0.98;;;30.50;29.80;;;27.83;35.84;95874.78;5035537;28;20033;-66
2022/06/01 09:19:16;;;;;;;4.30;1.20;;;31.00;29.30;;;27.81;35.24;95882.41;5017017;28;20029;-67
2022/06/01 09:24:34;;;;;;;4.25;0.82;;;30.30;29.50;;;27.50;34.56;95874.13;5026201;28;20124;-63
2022/06/01 09:27:04;;;;;;;2.85;1.10;;;29.20;30.90;;;27.24;35.39;95871.94;5014389;28;20033;-68
2022/06/01 09:29:35;;;;;;;2.85;1.02;;;29.20;31.20;;;27.25;34.76;95875.44;4992601;28;20523;-70
2022/06/01 09:32:05;;;;;;;2.65;0.90;;;30.10;30.60;;;27.35;34.49;95873.31;5013444;28;20059;-71
2022/06/01 09:34:49;;;;;;;3.75;1.00;;;30.00;29.40;;;27.51;34.41;95864.91;5009686;28;20436;-63
2022/06/01 09:37:23;;;;;;;1.77;1.02;;;30.60;30.00;;;27.61;33.96;95875.50;5009214;28;20037;-67
2022/06/01 09:39:57;;;;;;;4.47;0.80;;;30.40;29.50;;;27.63;34.63;95865.25;5020200;28;20040;-65
2022/06/01 09:42:38;;;;;;;2.13;0.90;;;30.50;30.50;;;27.54;33.92;95864.31;5033222;28;20043;-65
2022/06/01 09:45:23;;;;;;;1.75;0.90;;;30.00;29.90;;;27.42;33.79;95871.03;5036254;28;20069;-66
2022/06/01 09:47:50;;;;;;;3.38;1.15;;;29.70;30.10;;;27.43;34.90;95875.34;5043642;28;20507;-66
2022/06/01 09:50:32;;;;;;;2.22;0.70;;;30.10;29.40;;;27.37;34.47;95871.13;5038815;28;20037;-66
2022/06/01 09:53:17;;;;;;;4.40;1.08;;;29.60;31.20;;;27.42;34.89;95876.44;5066007;28;20577;-66
2022/06/01 09:55:58;;;;;;;1.50;0.90;;;30.10;31.00;;;27.62;33.72;95866.31;5032565;28;20079;-65
2022/06/01 10:07:28;;;;;;;4.07;1.48;;;32.60;26.60;;;29.12;32.34;95859.47;5030085;28;20048;-66
2022/06/01 10:09:57;;;;;;;1.77;0.93;;;32.80;26.10;;;29.48;33.42;95850.38;5016618;28;20034;-65
2022/06/01 10:12:33;;;;;;;2.60;0.90;;;33.40;26.40;;;29.95;31.43;95856.00;5012338;28;20418;-64
2022/06/01 10:15:00;;;;;;;2.70;1.13;;;33.80;26.00;;;30.11;32.15;95862.59;5044800;28;20053;-61
2022/06/01 10:17:35;;;;;;;1.75;0.73;;;33.50;25.50;;;30.09;29.45;95853.97;5019584;28;20037;-62
2022/06/01 10:20:24;;;;;;;3.22;1.00;;;33.10;24.30;;;30.27;29.17;95850.13;5036249;28;20029;-61
2022/06/01 10:23:17;;;;;;;2.03;1.00;;;33.60;24.40;;;30.59;29.17;95848.03;5030162;28;20083;-63
2022/06/01 10:25:54;;;;;;;1.42;0.70;;;34.20;24.10;;;30.44;29.11;95858.25;5014954;28;20040;-64
2022/06/01 10:28:40;;;;;;;1.92;0.80;;;32.90;24.90;;;30.18;29.47;95866.41;5032240;28;20057;-64
2022/06/01 10:31:21;;;;;;;1.98;0.80;;;32.60;25.90;;;29.85;29.33;95855.19;5013173;28;20504;-63
2022/06/01 10:33:51;;;;;;;2.92;0.98;;;32.00;25.70;;;29.66;30.50;95862.84;5038918;28;20038;-63
2022/06/01 10:36:50;;;;;;;3.10;0.77;;;31.90;26.40;;;29.53;30.72;95861.84;5043551;28;20033;-62
2022/06/01 10:39:58;;;;;;;1.40;0.80;;;32.00;26.90;;;29.71;29.14;95865.41;5002407;28;20076;-64
2022/06/01 10:43:18;;;;;;;1.42;0.90;;;32.60;24.90;;;29.76;29.72;95867.97;4930991;28;20071;-63
2022/06/01 10:45:52;;;;;;;2.90;1.00;;;32.90;25.40;;;29.84;28.66;95869.88;4936768;28;20058;-62
2022/06/01 10:48:19;;;;;;;2.63;0.90;;;32.30;25.00;;;29.85;30.49;95866.03;4983182;28;20622;-62
2022/06/01 10:51:23;;;;;;;3.33;0.82;;;32.60;25.30;;;30.03;29.45;95861.47;5031566;28;20037;-62
2022/06/01 10:54:19;;;;;;;1.65;0.80;;;32.50;25.80;;;30.05;28.76;95853.00;5033991;28;20048;-66
2022/06/01 10:56:44;;;;;;;1.70;0.77;;;32.50;25.60;;;30.07;30.12;95856.19;5008517;28;20117;-69
2022/06/01 10:59:12;;;;;;;3.00;0.90;;;32.40;26.20;;;29.96;30.12;95855.69;5054205;28;20117;-67
2022/06/01 11:02:03;;;;;;;3.25;0.80;;;32.00;25.60;;;29.70;28.94;95860.31;5020937;28;20041;-66
2022/06/01 11:04:57;;;;;;;0.90;0.65;;;31.50;26.10;;;29.23;28.90;95855.38;5042926;28;21414;-66
2022/06/01 11:07:44;;;;;;;2.78;0.73;;;30.80;26.50;;;28.98;29.77;95853.38;5050637;28;20083;-66
2022/06/01 11:10:31;;;;;;;3.75;0.93;;;30.80;27.30;;;28.84;29.89;95858.03;5012756;28;20038;-66
2022/06/01 11:13:42;;;;;;;2.55;0.90;;;30.50;27.40;;;28.54;30.60;95857.72;5042593;28;20702;-66
2022/06/01 11:16:39;;;;;;;4.13;0.90;;;30.30;28.50;;;28.28;30.18;95852.13;5042681;28;20032;-64
2022/06/01 11:19:49;;;;;;;1.83;0.75;;;29.90;28.20;;;27.93;30.53;95852.94;5033599;28;20392;-66
2022/06/01 11:22:36;;;;;;;13.52;1.10;;;29.60;28.70;;;27.63;31.25;95843.63;5040310;28;20041;-65
2022/06/01 11:25:11;;;;;;;2.72;0.90;;;29.10;29.00;;;27.37;30.68;95857.59;5043189;28;20045;-64
2022/06/01 11:28:10;;;;;;;2.08;0.80;;;29.00;29.50;;;27.34;33.01;95860.13;5032033;28;20038;-64
2022/06/01 11:31:17;;;;;;;2.50;0.80;;;29.10;30.80;;;27.37;32.15;95857.59;5033596;28;20353;-60
2022/06/01 11:33:42;;;;;;;1.75;0.88;;;29.20;29.70;;;27.24;32.79;95855.72;5014135;28;20045;-61
2022/06/01 11:36:32;;;;;;;2.08;1.08;;;29.10;30.60;;;27.22;31.14;95860.63;5024849;28;20033;-64
2022/06/01 11:39:19;;;;;;;2.03;0.82;;;28.80;29.50;;;27.21;32.10;95850.94;5040308;28;20091;-65
2022/06/01 11:42:37;;;;;;;1.52;0.90;;;29.30;29.90;;;27.91;32.32;95838.94;5043694;28;20479;-66
2022/06/01 11:45:19;;;;;;;1.60;1.00;;;31.00;28.10;;;28.65;31.77;95836.59;5048711;28;20042;-65
2022/06/01 11:47:49;;;;;;;3.78;0.88;;;32.10;27.80;;;28.84;31.75;95841.78;5042875;28;20041;-64
2022/06/01 11:50:41;;;;;;;1.80;0.85;;;31.10;27.50;;;29.09;29.50;95837.63;5042246;28;20403;-64
2022/06/01 11:53:13;;;;;;;2.30;1.00;;;32.00;25.60;;;29.75;29.17;95825.69;5029803;28;20055;-64
2022/06/01 11:55:39;;;;;;;1.90;0.90;;;33.20;24.80;;;30.32;30.19;95820.09;5028921;28;20037;-65
2022/06/01 11:58:13;;;;;;;1.55;0.90;;;33.90;24.00;;;31.06;28.34;95827.91;5042565;28;20044;-66
2022/06/01 12:00:48;;;;;;;2.13;0.98;;;34.80;23.20;;;31.81;28.17;95820.00;5052932;28;20500;-64
2022/06/01 12:03:16;;;;;;;1.77;0.88;;;35.80;22.90;;;32.55;27.36;95815.69;5036615;28;20050;-64
2022/06/01 12:06:36;;;;;;;1.85;0.82;;;36.70;22.30;;;33.26;26.48;95807.16;5038954;28;20094;-67
2022/06/01 12:09:03;;;;;;;1.75;0.85;;;36.70;21.00;;;33.41;27.35;95803.00;5016122;28;20044;-65
2022/06/01 12:11:40;;;;;;;2.15;0.80;;;36.70;21.50;;;33.62;25.43;95806.38;5030948;28;20044;-65
2022/06/01 12:14:33;;;;;;;2.53;1.10;;;36.50;21.60;;;34.15;25.82;95795.44;5033660;28;20037;-65
2022/06/01 12:17:17;;;;;;;3.03;0.80;;;37.70;21.40;;;34.45;25.30;95785.00;5043428;28;20060;-65
2022/06/01 12:19:45;;;;;;;2.30;1.25;;;36.80;21.50;;;34.43;26.74;95785.34;5023912;28;20042;-65
2022/06/01 12:29:07;;;;;;;1.77;0.77;;;36.10;21.10;;;33.66;25.05;95790.09;5038465;28;20044;-65
2022/06/01 12:31:36;;;;;;;3.47;1.20;;;35.60;22.40;;;33.69;25.67;95790.22;5041271;28;20590;-65
2022/06/01 12:34:01;;;;;;;2.20;0.80;;;36.00;22.60;;;33.66;25.62;95781.94;5003215;28;20137;-64
2022/06/01 12:36:43;;;;;;;1.83;0.70;;;36.00;21.80;;;33.39;25.48;95784.25;5015817;28;20140;-64
2022/06/01 12:39:39;;;;;;;2.25;0.90;;;35.10;22.80;;;32.98;25.90;95768.91;5034896;28;20029;-66
2022/06/01 12:42:29;;;;;;;2.17;0.88;;;34.50;23.70;;;32.67;25.46;95785.78;4999236;28;20503;-66
2022/06/01 12:44:57;;;;;;;2.67;0.98;;;34.20;23.90;;;32.40;26.14;95775.50;5032147;28;20069;-65
2022/06/01 12:47:32;;;;;;;2.15;0.90;;;34.40;24.50;;;32.48;26.21;95766.44;5001561;28;20052;-65
2022/06/01 12:50:09;;;;;;;2.47;0.90;;;34.80;23.80;;;32.41;26.08;95769.72;5033896;28;20037;-66
2022/06/01 12:52:35;;;;;;;2.58;0.90;;;34.10;24.10;;;32.13;26.87;95772.19;5026215;28;20504;-65
2022/06/01 12:55:07;;;;;;;1.77;0.80;;;33.70;25.10;;;32.00;26.32;95765.13;5047785;28;20095;-61
2022/06/01 12:57:47;;;;;;;3.22;0.80;;;33.60;24.40;;;31.75;27.23;95771.59;5013770;28;20033;-66
2022/06/01 13:00:25;;;;;;;1.30;0.68;;;33.00;25.00;;;31.38;28.27;95774.84;5030286;28;20039;-65
2022/06/01 13:02:50;;;;;;;2.92;1.00;;;32.60;26.80;;;30.94;27.68;95775.41;5012862;28;20111;-65
2022/06/01 13:05:35;;;;;;;3.80;1.70;;;31.90;27.20;;;30.53;28.63;95763.22;5041886;28;20029;-67
2022/06/01 13:08:00;;;;;;;3.22;1.30;;;31.50;27.90;;;30.10;28.73;95771.47;5020000;28;20040;-61
2022/06/01 13:10:32;;;;;;;11.00;2.80;;;30.80;28.00;;;29.64;28.70;95778.31;5012280;28;20073;-66
2022/06/01 13:13:16;;;;;;;5.65;2.38;;;30.30;29.20;;;29.32;30.41;95770.59;5014605;28;20403;-61
2022/06/01 13:15:56;;;;;;;2.97;0.95;;;30.40;30.00;;;29.06;30.21;95776.75;5015682;28;20377;-61
2022/06/01 13:18:27;;;;;;;3.30;1.08;;;29.90;29.80;;;28.84;29.83;95776.81;5009133;28;20091;-61
2022/06/01 13:21:02;;;;;;;1.45;0.80;;;29.80;29.10;;;28.62;30.54;95781.19;5032950;28;20034;-60
2022/06/01 13:23:50;;;;;;;1.83;0.70;;;29.70;30.00;;;28.59;30.84;95776.41;5027655;28;20107;-61
2022/06/01 13:26:29;;;;;;;1.65;1.00;;;30.00;31.00;;;28.52;32.05;95776.06;5043399;28;20036;-60
2022/06/01 13:29:02;;;;;;;6.65;1.05;;;30.00;30.90;;;28.48;31.50;95782.38;5014046;28;20124;-60
2022/06/01 13:31:27;;;;;;;3.83;0.95;;;29.90;29.90;;;28.30;30.60;95768.78;5038447;28;20117;-66
2022/06/01 13:33:53;;;;;;;2.25;0.90;;;29.50;29.00;;;28.27;30.33;95773.97;5011977;28;20029;-66
2022/06/01 13:36:29;;;;;;;2.20;0.70;;;29.60;29.30;;;28.20;30.29;95766.28;5027992;28;20088;-66
2022/06/01 13:39:12;;;;;;;3.20;1.20;;;29.60;28.60;;;28.15;30.20;95760.22;5023727;28;20033;-65
2022/06/01 13:41:52;;;;;;;3.08;0.90;;;29.60;29.10;;;28.00;30.79;95775.69;5035777;28;20397;-64
2022/06/01 13:44:51;;;;;;;5.18;0.90;;;29.20;30.10;;;27.74;30.12;95777.41;5047242;28;20041;-65
2022/06/01 13:47:23;;;;;;;1.80;0.85;;;28.80;29.70;;;27.60;30.27;95776.63;5014686;28;20041;-65
2022/06/01 13:49:51;;;;;;;2.70;0.90;;;28.80;29.00;;;27.58;30.74;95773.44;5003781;28;20104;-64